sensor_id;sensor_type;location;lat;lon;timestamp;temperature;humidity
44767;DHT22;30487;48.716;9.272;2022-07-15T00:00:33;21.80;60.60
44767;DHT22;30487;48.716;9.272;2022-07-15T00:02:59;21.70;60.60
44767;DHT22;30487;48.716;9.272;2022-07-15T00:05:24;21.70;60.70
44767;DHT22;30487;48.716;9.272;2022-07-15T00:07:50;21.60;60.70
44767;DHT22;30487;48.716;9.272;2022-07-15T00:10:16;21.60;60.80
44767;DHT22;30487;48.716;9.272;2022-07-15T00:12:50;21.60;60.50
44767;DHT22;30487;48.716;9.272;2022-07-15T00:15:16;21.70;60.30
44767;DHT22;30487;48.716;9.272;2022-07-15T00:17:42;21.60;60.40
44767;DHT22;30487;48.716;9.272;2022-07-15T00:20:08;21.60;60.70
44767;DHT22;30487;48.716;9.272;2022-07-15T00:22:35;21.50;60.50
44767;DHT22;30487;48.716;9.272;2022-07-15T00:25:01;21.60;60.80
44767;DHT22;30487;48.716;9.272;2022-07-15T00:27:26;21.50;60.90
44767;DHT22;30487;48.716;9.272;2022-07-15T00:29:52;21.50;60.60
44767;DHT22;30487;48.716;9.272;2022-07-15T00:32:17;21.50;60.70
44767;DHT22;30487;48.716;9.272;2022-07-15T00:34:43;21.50;61.00
44767;DHT22;30487;48.716;9.272;2022-07-15T00:37:08;21.40;60.90
44767;DHT22;30487;48.716;9.272;2022-07-15T00:39:34;21.40;61.00
44767;DHT22;30487;48.716;9.272;2022-07-15T00:41:59;21.30;61.20
44767;DHT22;30487;48.716;9.272;2022-07-15T00:44:25;21.40;61.00
44767;DHT22;30487;48.716;9.272;2022-07-15T00:46:51;21.30;61.20
44767;DHT22;30487;48.716;9.272;2022-07-15T00:49:17;21.30;61.30
44767;DHT22;30487;48.716;9.272;2022-07-15T00:51:43;21.30;61.20
44767;DHT22;30487;48.716;9.272;2022-07-15T00:54:10;21.20;61.40
44767;DHT22;30487;48.716;9.272;2022-07-15T00:56:38;21.10;61.60
44767;DHT22;30487;48.716;9.272;2022-07-15T00:59:05;21.10;61.60
44767;DHT22;30487;48.716;9.272;2022-07-15T01:01:31;21.10;62.00
44767;DHT22;30487;48.716;9.272;2022-07-15T01:03:57;21.00;62.00
44767;DHT22;30487;48.716;9.272;2022-07-15T01:06:23;21.00;62.20
44767;DHT22;30487;48.716;9.272;2022-07-15T01:08:51;20.90;62.30
44767;DHT22;30487;48.716;9.272;2022-07-15T01:11:17;20.90;62.10
44767;DHT22;30487;48.716;9.272;2022-07-15T01:13:43;20.90;62.30
44767;DHT22;30487;48.716;9.272;2022-07-15T01:16:08;20.80;62.70
44767;DHT22;30487;48.716;9.272;2022-07-15T01:18:34;20.80;62.60
44767;DHT22;30487;48.716;9.272;2022-07-15T01:20:59;20.80;62.50
44767;DHT22;30487;48.716;9.272;2022-07-15T01:23:25;20.70;62.60
44767;DHT22;30487;48.716;9.272;2022-07-15T01:25:50;20.70;62.50
44767;DHT22;30487;48.716;9.272;2022-07-15T01:28:18;20.70;62.80
44767;DHT22;30487;48.716;9.272;2022-07-15T01:30:44;20.70;63.10
44767;DHT22;30487;48.716;9.272;2022-07-15T01:33:10;20.70;63.40
44767;DHT22;30487;48.716;9.272;2022-07-15T01:35:35;20.70;63.00
44767;DHT22;30487;48.716;9.272;2022-07-15T01:38:01;20.70;62.60
44767;DHT22;30487;48.716;9.272;2022-07-15T01:40:26;20.70;62.90
44767;DHT22;30487;48.716;9.272;2022-07-15T01:42:52;20.60;62.80
44767;DHT22;30487;48.716;9.272;2022-07-15T01:45:17;20.50;63.30
44767;DHT22;30487;48.716;9.272;2022-07-15T01:47:46;20.60;63.60
44767;DHT22;30487;48.716;9.272;2022-07-15T01:50:12;20.60;63.40
44767;DHT22;30487;48.716;9.272;2022-07-15T01:52:38;20.60;63.80
44767;DHT22;30487;48.716;9.272;2022-07-15T01:55:04;20.60;63.20
44767;DHT22;30487;48.716;9.272;2022-07-15T01:57:30;20.60;63.50
44767;DHT22;30487;48.716;9.272;2022-07-15T01:59:56;20.60;64.00
44767;DHT22;30487;48.716;9.272;2022-07-15T02:02:21;20.50;63.20
44767;DHT22;30487;48.716;9.272;2022-07-15T02:04:47;20.40;63.70
44767;DHT22;30487;48.716;9.272;2022-07-15T02:07:13;20.40;63.40
44767;DHT22;30487;48.716;9.272;2022-07-15T02:09:38;20.30;63.30
44767;DHT22;30487;48.716;9.272;2022-07-15T02:12:04;20.20;63.60
44767;DHT22;30487;48.716;9.272;2022-07-15T02:14:30;20.10;64.20
44767;DHT22;30487;48.716;9.272;2022-07-15T02:16:55;20.10;64.40
44767;DHT22;30487;48.716;9.272;2022-07-15T02:19:21;20.10;64.00
44767;DHT22;30487;48.716;9.272;2022-07-15T02:21:46;20.00;63.90
44767;DHT22;30487;48.716;9.272;2022-07-15T02:24:13;20.00;63.60
44767;DHT22;30487;48.716;9.272;2022-07-15T02:26:39;20.00;63.90
44767;DHT22;30487;48.716;9.272;2022-07-15T02:29:04;20.00;64.00
44767;DHT22;30487;48.716;9.272;2022-07-15T02:31:30;19.90;63.90
44767;DHT22;30487;48.716;9.272;2022-07-15T02:33:55;19.90;64.30
44767;DHT22;30487;48.716;9.272;2022-07-15T02:36:21;19.80;64.80
44767;DHT22;30487;48.716;9.272;2022-07-15T02:38:47;19.80;64.60
44767;DHT22;30487;48.716;9.272;2022-07-15T02:41:13;19.80;65.30
44767;DHT22;30487;48.716;9.272;2022-07-15T02:43:38;19.80;65.20
44767;DHT22;30487;48.716;9.272;2022-07-15T02:46:04;19.80;65.00
44767;DHT22;30487;48.716;9.272;2022-07-15T02:48:30;19.80;65.20
44767;DHT22;30487;48.716;9.272;2022-07-15T02:50:57;19.80;65.10
44767;DHT22;30487;48.716;9.272;2022-07-15T02:53:22;19.80;65.00
44767;DHT22;30487;48.716;9.272;2022-07-15T02:55:54;19.80;65.20
44767;DHT22;30487;48.716;9.272;2022-07-15T02:58:20;19.70;65.50
44767;DHT22;30487;48.716;9.272;2022-07-15T03:00:45;19.70;65.80
44767;DHT22;30487;48.716;9.272;2022-07-15T03:03:11;19.70;66.80
44767;DHT22;30487;48.716;9.272;2022-07-15T03:05:36;19.60;66.70
44767;DHT22;30487;48.716;9.272;2022-07-15T03:08:02;19.50;67.30
44767;DHT22;30487;48.716;9.272;2022-07-15T03:10:27;19.50;67.30
44767;DHT22;30487;48.716;9.272;2022-07-15T03:12:53;19.50;67.20
44767;DHT22;30487;48.716;9.272;2022-07-15T03:15:18;19.50;67.10
44767;DHT22;30487;48.716;9.272;2022-07-15T03:17:44;19.50;67.10
44767;DHT22;30487;48.716;9.272;2022-07-15T03:20:09;19.50;67.10
44767;DHT22;30487;48.716;9.272;2022-07-15T03:22:35;19.40;67.40
44767;DHT22;30487;48.716;9.272;2022-07-15T03:25:01;19.50;67.60
44767;DHT22;30487;48.716;9.272;2022-07-15T03:27:26;19.50;67.30
44767;DHT22;30487;48.716;9.272;2022-07-15T03:29:52;19.40;67.60
44767;DHT22;30487;48.716;9.272;2022-07-15T03:32:17;19.40;67.60
44767;DHT22;30487;48.716;9.272;2022-07-15T03:34:44;19.40;68.00
44767;DHT22;30487;48.716;9.272;2022-07-15T03:37:10;19.30;67.80
44767;DHT22;30487;48.716;9.272;2022-07-15T03:39:36;19.30;67.90
44767;DHT22;30487;48.716;9.272;2022-07-15T03:42:02;19.40;67.80
44767;DHT22;30487;48.716;9.272;2022-07-15T03:44:27;19.40;68.30
44767;DHT22;30487;48.716;9.272;2022-07-15T03:46:53;19.40;68.20
44767;DHT22;30487;48.716;9.272;2022-07-15T03:49:19;19.40;67.70
44767;DHT22;30487;48.716;9.272;2022-07-15T03:51:44;19.40;67.90
44767;DHT22;30487;48.716;9.272;2022-07-15T03:54:10;19.40;68.30
44767;DHT22;30487;48.716;9.272;2022-07-15T03:56:36;19.40;68.20
44767;DHT22;30487;48.716;9.272;2022-07-15T03:59:02;19.40;68.10
44767;DHT22;30487;48.716;9.272;2022-07-15T04:01:27;19.40;68.00
44767;DHT22;30487;48.716;9.272;2022-07-15T04:03:53;19.30;68.50
44767;DHT22;30487;48.716;9.272;2022-07-15T04:06:19;19.30;68.30
44767;DHT22;30487;48.716;9.272;2022-07-15T04:08:45;19.30;68.50
44767;DHT22;30487;48.716;9.272;2022-07-15T04:11:11;19.30;68.70
44767;DHT22;30487;48.716;9.272;2022-07-15T04:13:37;19.30;68.50
44767;DHT22;30487;48.716;9.272;2022-07-15T04:16:03;19.30;69.20
44767;DHT22;30487;48.716;9.272;2022-07-15T04:18:29;19.20;68.50
44767;DHT22;30487;48.716;9.272;2022-07-15T04:20:54;19.20;68.30
44767;DHT22;30487;48.716;9.272;2022-07-15T04:23:20;19.20;67.90
44767;DHT22;30487;48.716;9.272;2022-07-15T04:25:46;19.20;68.60
44767;DHT22;30487;48.716;9.272;2022-07-15T04:28:11;19.20;67.80
44767;DHT22;30487;48.716;9.272;2022-07-15T04:30:37;19.30;68.00
44767;DHT22;30487;48.716;9.272;2022-07-15T04:33:02;19.30;67.80
44767;DHT22;30487;48.716;9.272;2022-07-15T04:35:28;19.30;67.70
44767;DHT22;30487;48.716;9.272;2022-07-15T04:37:53;19.40;67.90
44767;DHT22;30487;48.716;9.272;2022-07-15T04:40:19;19.40;68.30
44767;DHT22;30487;48.716;9.272;2022-07-15T04:42:44;19.40;68.60
44767;DHT22;30487;48.716;9.272;2022-07-15T04:45:10;19.40;68.50
44767;DHT22;30487;48.716;9.272;2022-07-15T04:47:36;19.30;69.50
44767;DHT22;30487;48.716;9.272;2022-07-15T04:50:02;19.30;70.70
44767;DHT22;30487;48.716;9.272;2022-07-15T04:52:46;19.20;72.80
44767;DHT22;30487;48.716;9.272;2022-07-15T04:55:12;18.90;73.10
44767;DHT22;30487;48.716;9.272;2022-07-15T04:57:38;18.80;73.50
44767;DHT22;30487;48.716;9.272;2022-07-15T05:00:04;18.90;74.50
44767;DHT22;30487;48.716;9.272;2022-07-15T05:02:30;18.90;72.50
44767;DHT22;30487;48.716;9.272;2022-07-15T05:04:55;19.00;72.20
44767;DHT22;30487;48.716;9.272;2022-07-15T05:07:21;19.00;71.80
44767;DHT22;30487;48.716;9.272;2022-07-15T05:09:46;19.20;72.20
44767;DHT22;30487;48.716;9.272;2022-07-15T05:12:12;19.20;70.60
44767;DHT22;30487;48.716;9.272;2022-07-15T05:14:37;19.30;71.60
44767;DHT22;30487;48.716;9.272;2022-07-15T05:17:05;19.30;71.20
44767;DHT22;30487;48.716;9.272;2022-07-15T05:19:32;19.40;70.00
44767;DHT22;30487;48.716;9.272;2022-07-15T05:21:57;19.40;70.50
44767;DHT22;30487;48.716;9.272;2022-07-15T05:24:23;19.50;70.40
44767;DHT22;30487;48.716;9.272;2022-07-15T05:26:48;19.50;70.10
44767;DHT22;30487;48.716;9.272;2022-07-15T05:29:14;19.60;69.60
44767;DHT22;30487;48.716;9.272;2022-07-15T05:31:39;19.70;69.50
44767;DHT22;30487;48.716;9.272;2022-07-15T05:34:05;19.80;69.50
44767;DHT22;30487;48.716;9.272;2022-07-15T05:36:30;19.90;68.60
44767;DHT22;30487;48.716;9.272;2022-07-15T05:38:56;20.00;68.60
44767;DHT22;30487;48.716;9.272;2022-07-15T05:41:21;20.10;69.20
44767;DHT22;30487;48.716;9.272;2022-07-15T05:43:47;20.10;70.40
44767;DHT22;30487;48.716;9.272;2022-07-15T05:46:13;20.10;72.30
44767;DHT22;30487;48.716;9.272;2022-07-15T05:48:39;20.20;70.20
44767;DHT22;30487;48.716;9.272;2022-07-15T05:51:06;20.10;67.00
44767;DHT22;30487;48.716;9.272;2022-07-15T05:53:32;20.20;67.60
44767;DHT22;30487;48.716;9.272;2022-07-15T05:55:57;20.20;66.90
44767;DHT22;30487;48.716;9.272;2022-07-15T05:58:23;20.30;66.90
44767;DHT22;30487;48.716;9.272;2022-07-15T06:00:49;20.30;66.30
44767;DHT22;30487;48.716;9.272;2022-07-15T06:03:15;20.30;69.90
44767;DHT22;30487;48.716;9.272;2022-07-15T06:05:41;20.20;73.60
44767;DHT22;30487;48.716;9.272;2022-07-15T06:08:07;20.30;74.30
44767;DHT22;30487;48.716;9.272;2022-07-15T06:10:32;20.40;74.50
44767;DHT22;30487;48.716;9.272;2022-07-15T06:12:58;20.40;74.10
44767;DHT22;30487;48.716;9.272;2022-07-15T06:15:23;20.50;73.90
44767;DHT22;30487;48.716;9.272;2022-07-15T06:17:49;20.40;74.80
44767;DHT22;30487;48.716;9.272;2022-07-15T06:20:14;20.40;73.40
44767;DHT22;30487;48.716;9.272;2022-07-15T06:22:40;20.40;74.30
44767;DHT22;30487;48.716;9.272;2022-07-15T06:25:06;20.50;73.20
44767;DHT22;30487;48.716;9.272;2022-07-15T06:27:32;20.60;72.00
44767;DHT22;30487;48.716;9.272;2022-07-15T06:29:57;20.70;72.30
44767;DHT22;30487;48.716;9.272;2022-07-15T06:32:23;20.80;73.30
44767;DHT22;30487;48.716;9.272;2022-07-15T06:34:49;20.90;72.70
44767;DHT22;30487;48.716;9.272;2022-07-15T06:37:14;20.90;71.10
44767;DHT22;30487;48.716;9.272;2022-07-15T06:39:40;21.00;70.20
44767;DHT22;30487;48.716;9.272;2022-07-15T06:42:05;20.90;70.10
44767;DHT22;30487;48.716;9.272;2022-07-15T06:44:31;20.90;71.50
44767;DHT22;30487;48.716;9.272;2022-07-15T06:46:57;21.00;72.00
44767;DHT22;30487;48.716;9.272;2022-07-15T06:49:22;21.10;71.50
44767;DHT22;30487;48.716;9.272;2022-07-15T06:51:48;21.20;70.40
44767;DHT22;30487;48.716;9.272;2022-07-15T06:54:14;21.30;70.40
44767;DHT22;30487;48.716;9.272;2022-07-15T06:56:39;21.50;70.80
44767;DHT22;30487;48.716;9.272;2022-07-15T06:59:05;21.50;70.90
44767;DHT22;30487;48.716;9.272;2022-07-15T07:01:31;21.60;70.90
44767;DHT22;30487;48.716;9.272;2022-07-15T07:03:56;21.80;71.00
44767;DHT22;30487;48.716;9.272;2022-07-15T07:06:22;21.90;70.70
44767;DHT22;30487;48.716;9.272;2022-07-15T07:08:47;22.00;69.70
44767;DHT22;30487;48.716;9.272;2022-07-15T07:11:14;22.10;68.10
44767;DHT22;30487;48.716;9.272;2022-07-15T07:13:39;22.10;69.50
44767;DHT22;30487;48.716;9.272;2022-07-15T07:16:05;22.20;68.60
44767;DHT22;30487;48.716;9.272;2022-07-15T07:18:31;22.40;68.60
44767;DHT22;30487;48.716;9.272;2022-07-15T07:20:56;22.50;67.30
44767;DHT22;30487;48.716;9.272;2022-07-15T07:23:22;22.50;68.50
44767;DHT22;30487;48.716;9.272;2022-07-15T07:25:54;22.50;67.90
44767;DHT22;30487;48.716;9.272;2022-07-15T07:28:20;22.60;65.20
44767;DHT22;30487;48.716;9.272;2022-07-15T07:30:46;22.70;65.20
44767;DHT22;30487;48.716;9.272;2022-07-15T07:33:12;22.80;63.80
44767;DHT22;30487;48.716;9.272;2022-07-15T07:35:37;22.90;61.90
44767;DHT22;30487;48.716;9.272;2022-07-15T07:38:03;22.90;63.50
44767;DHT22;30487;48.716;9.272;2022-07-15T07:40:29;22.80;61.90
44767;DHT22;30487;48.716;9.272;2022-07-15T07:42:54;22.90;62.20
44767;DHT22;30487;48.716;9.272;2022-07-15T07:45:24;23.00;61.30
44767;DHT22;30487;48.716;9.272;2022-07-15T07:47:50;23.20;61.70
44767;DHT22;30487;48.716;9.272;2022-07-15T07:50:16;23.20;60.00
44767;DHT22;30487;48.716;9.272;2022-07-15T07:52:41;23.30;61.30
44767;DHT22;30487;48.716;9.272;2022-07-15T07:55:08;23.50;59.60
44767;DHT22;30487;48.716;9.272;2022-07-15T07:57:34;23.50;60.10
44767;DHT22;30487;48.716;9.272;2022-07-15T07:59:59;23.70;59.00
44767;DHT22;30487;48.716;9.272;2022-07-15T08:02:25;23.60;59.70
44767;DHT22;30487;48.716;9.272;2022-07-15T08:04:50;23.70;59.80
44767;DHT22;30487;48.716;9.272;2022-07-15T08:07:17;23.70;59.80
44767;DHT22;30487;48.716;9.272;2022-07-15T08:09:42;23.70;59.70
44767;DHT22;30487;48.716;9.272;2022-07-15T08:12:08;23.80;61.00
44767;DHT22;30487;48.716;9.272;2022-07-15T08:14:33;24.00;61.40
44767;DHT22;30487;48.716;9.272;2022-07-15T08:16:59;24.10;61.70
44767;DHT22;30487;48.716;9.272;2022-07-15T08:19:24;24.30;60.90
44767;DHT22;30487;48.716;9.272;2022-07-15T08:21:50;24.40;58.30
44767;DHT22;30487;48.716;9.272;2022-07-15T08:24:16;24.50;59.50
44767;DHT22;30487;48.716;9.272;2022-07-15T08:26:42;24.60;59.70
44767;DHT22;30487;48.716;9.272;2022-07-15T08:29:08;24.70;59.20
44767;DHT22;30487;48.716;9.272;2022-07-15T08:31:33;24.80;58.20
44767;DHT22;30487;48.716;9.272;2022-07-15T08:34:00;24.70;58.80
44767;DHT22;30487;48.716;9.272;2022-07-15T08:36:26;24.80;58.30
44767;DHT22;30487;48.716;9.272;2022-07-15T08:38:51;24.90;59.50
44767;DHT22;30487;48.716;9.272;2022-07-15T08:41:17;25.00;60.20
44767;DHT22;30487;48.716;9.272;2022-07-15T08:43:42;25.10;61.00
44767;DHT22;30487;48.716;9.272;2022-07-15T08:46:08;25.30;59.70
44767;DHT22;30487;48.716;9.272;2022-07-15T08:48:35;25.40;58.30
44767;DHT22;30487;48.716;9.272;2022-07-15T08:51:00;25.50;58.10
44767;DHT22;30487;48.716;9.272;2022-07-15T08:53:27;25.50;57.80
44767;DHT22;30487;48.716;9.272;2022-07-15T08:55:56;25.70;57.30
44767;DHT22;30487;48.716;9.272;2022-07-15T08:58:21;25.80;56.20
44767;DHT22;30487;48.716;9.272;2022-07-15T09:00:47;25.90;57.80
44767;DHT22;30487;48.716;9.272;2022-07-15T09:03:13;25.90;58.00
44767;DHT22;30487;48.716;9.272;2022-07-15T09:05:38;26.00;57.60
44767;DHT22;30487;48.716;9.272;2022-07-15T09:10:43;26.20;56.40
44767;DHT22;30487;48.716;9.272;2022-07-15T09:13:12;26.20;56.30
44767;DHT22;30487;48.716;9.272;2022-07-15T09:15:46;26.20;55.90
44767;DHT22;30487;48.716;9.272;2022-07-15T09:18:13;26.20;58.60
44767;DHT22;30487;48.716;9.272;2022-07-15T09:20:39;26.40;56.90
44767;DHT22;30487;48.716;9.272;2022-07-15T09:23:05;26.50;56.10
44767;DHT22;30487;48.716;9.272;2022-07-15T09:25:31;26.50;54.90
44767;DHT22;30487;48.716;9.272;2022-07-15T09:28:01;26.60;54.20
44767;DHT22;30487;48.716;9.272;2022-07-15T09:30:28;26.60;54.80
44767;DHT22;30487;48.716;9.272;2022-07-15T09:41:23;26.90;55.40
44767;DHT22;30487;48.716;9.272;2022-07-15T09:46:46;27.20;54.20
44767;DHT22;30487;48.716;9.272;2022-07-15T09:49:16;27.30;54.00
44767;DHT22;30487;48.716;9.272;2022-07-15T09:52:28;27.50;54.20
44767;DHT22;30487;48.716;9.272;2022-07-15T09:54:29;27.60;55.40
44767;DHT22;30487;48.716;9.272;2022-07-15T09:56:56;27.60;54.20
44767;DHT22;30487;48.716;9.272;2022-07-15T09:59:23;27.60;55.60
44767;DHT22;30487;48.716;9.272;2022-07-15T10:01:49;27.80;54.50
44767;DHT22;30487;48.716;9.272;2022-07-15T10:04:20;27.90;53.60
44767;DHT22;30487;48.716;9.272;2022-07-15T10:06:46;27.90;54.80
44767;DHT22;30487;48.716;9.272;2022-07-15T10:09:12;27.90;53.70
44767;DHT22;30487;48.716;9.272;2022-07-15T10:11:41;27.90;53.20
44767;DHT22;30487;48.716;9.272;2022-07-15T10:14:16;27.90;53.90
44767;DHT22;30487;48.716;9.272;2022-07-15T10:22:35;27.70;55.10
44767;DHT22;30487;48.716;9.272;2022-07-15T10:25:12;27.80;53.70
44767;DHT22;30487;48.716;9.272;2022-07-15T10:30:24;27.80;53.80
44767;DHT22;30487;48.716;9.272;2022-07-15T10:38:19;28.40;52.50
44767;DHT22;30487;48.716;9.272;2022-07-15T10:40:58;28.50;54.50
44767;DHT22;30487;48.716;9.272;2022-07-15T10:43:37;28.60;54.30
44767;DHT22;30487;48.716;9.272;2022-07-15T10:46:03;28.80;56.30
44767;DHT22;30487;48.716;9.272;2022-07-15T10:48:29;29.00;53.60
44767;DHT22;30487;48.716;9.272;2022-07-15T10:50:55;29.00;55.20
44767;DHT22;30487;48.716;9.272;2022-07-15T10:53:22;29.10;54.20
44767;DHT22;30487;48.716;9.272;2022-07-15T10:55:49;29.20;54.00
44767;DHT22;30487;48.716;9.272;2022-07-15T10:58:15;28.70;51.30
44767;DHT22;30487;48.716;9.272;2022-07-15T11:00:42;28.90;53.90
44767;DHT22;30487;48.716;9.272;2022-07-15T11:06:19;29.10;53.80
44767;DHT22;30487;48.716;9.272;2022-07-15T11:13:39;29.20;53.70
44767;DHT22;30487;48.716;9.272;2022-07-15T11:16:05;29.30;54.80
44767;DHT22;30487;48.716;9.272;2022-07-15T11:18:47;29.30;53.90
44767;DHT22;30487;48.716;9.272;2022-07-15T11:21:13;29.10;53.40
44767;DHT22;30487;48.716;9.272;2022-07-15T11:23:38;29.20;54.70
44767;DHT22;30487;48.716;9.272;2022-07-15T11:26:04;29.30;54.40
44767;DHT22;30487;48.716;9.272;2022-07-15T11:28:30;29.50;53.00
44767;DHT22;30487;48.716;9.272;2022-07-15T11:30:55;29.60;54.20
44767;DHT22;30487;48.716;9.272;2022-07-15T11:33:23;29.70;54.10
44767;DHT22;30487;48.716;9.272;2022-07-15T11:35:53;29.90;54.00
44767;DHT22;30487;48.716;9.272;2022-07-15T11:38:19;30.00;53.50
44767;DHT22;30487;48.716;9.272;2022-07-15T11:40:47;29.90;52.70
44767;DHT22;30487;48.716;9.272;2022-07-15T11:43:32;29.60;51.30
44767;DHT22;30487;48.716;9.272;2022-07-15T11:46:16;29.40;53.40
44767;DHT22;30487;48.716;9.272;2022-07-15T11:48:42;29.30;53.70
44767;DHT22;30487;48.716;9.272;2022-07-15T11:51:08;29.50;53.80
44767;DHT22;30487;48.716;9.272;2022-07-15T11:53:39;29.80;52.60
44767;DHT22;30487;48.716;9.272;2022-07-15T11:56:05;30.00;50.20
44767;DHT22;30487;48.716;9.272;2022-07-15T11:58:38;29.80;49.90
44767;DHT22;30487;48.716;9.272;2022-07-15T12:01:08;29.90;50.10
44767;DHT22;30487;48.716;9.272;2022-07-15T12:03:35;29.90;49.40
44767;DHT22;30487;48.716;9.272;2022-07-15T12:08:49;29.70;49.90
44767;DHT22;30487;48.716;9.272;2022-07-15T12:13:45;30.80;50.60
44767;DHT22;30487;48.716;9.272;2022-07-15T12:16:11;31.40;49.10
44767;DHT22;30487;48.716;9.272;2022-07-15T12:18:37;31.90;48.10
44767;DHT22;30487;48.716;9.272;2022-07-15T12:21:02;32.30;48.20
44767;DHT22;30487;48.716;9.272;2022-07-15T12:23:28;32.60;48.60
44767;DHT22;30487;48.716;9.272;2022-07-15T12:26:03;32.30;47.50
44767;DHT22;30487;48.716;9.272;2022-07-15T12:28:30;33.00;47.90
44767;DHT22;30487;48.716;9.272;2022-07-15T12:30:55;33.20;48.30
44767;DHT22;30487;48.716;9.272;2022-07-15T12:33:21;32.90;49.00
44767;DHT22;30487;48.716;9.272;2022-07-15T12:35:47;31.80;48.00
44767;DHT22;30487;48.716;9.272;2022-07-15T12:38:29;31.80;49.30
44767;DHT22;30487;48.716;9.272;2022-07-15T12:41:38;32.40;47.00
44767;DHT22;30487;48.716;9.272;2022-07-15T12:44:06;32.20;46.90
44767;DHT22;30487;48.716;9.272;2022-07-15T12:52:11;31.20;49.20
44767;DHT22;30487;48.716;9.272;2022-07-15T12:54:36;31.10;50.60
44767;DHT22;30487;48.716;9.272;2022-07-15T12:57:02;31.30;49.70
44767;DHT22;30487;48.716;9.272;2022-07-15T12:59:27;31.40;49.10
44767;DHT22;30487;48.716;9.272;2022-07-15T13:02:02;31.30;48.50
44767;DHT22;30487;48.716;9.272;2022-07-15T13:04:28;32.00;48.30
44767;DHT22;30487;48.716;9.272;2022-07-15T13:06:53;33.10;47.50
44767;DHT22;30487;48.716;9.272;2022-07-15T13:09:19;34.30;47.90
44767;DHT22;30487;48.716;9.272;2022-07-15T13:11:44;35.00;46.80
44767;DHT22;30487;48.716;9.272;2022-07-15T13:14:10;35.10;45.90
44767;DHT22;30487;48.716;9.272;2022-07-15T13:16:35;34.90;46.70
44767;DHT22;30487;48.716;9.272;2022-07-15T13:19:01;34.80;46.30
44767;DHT22;30487;48.716;9.272;2022-07-15T13:21:26;34.20;46.90
44767;DHT22;30487;48.716;9.272;2022-07-15T13:23:52;34.20;46.40
44767;DHT22;30487;48.716;9.272;2022-07-15T13:26:17;33.60;46.50
44767;DHT22;30487;48.716;9.272;2022-07-15T13:28:43;32.80;46.30
44767;DHT22;30487;48.716;9.272;2022-07-15T13:31:08;32.70;46.80
44767;DHT22;30487;48.716;9.272;2022-07-15T13:33:34;32.60;46.70
44767;DHT22;30487;48.716;9.272;2022-07-15T13:35:59;32.60;47.00
44767;DHT22;30487;48.716;9.272;2022-07-15T13:38:25;32.60;47.50
44767;DHT22;30487;48.716;9.272;2022-07-15T13:40:50;32.10;47.10
44767;DHT22;30487;48.716;9.272;2022-07-15T13:43:16;31.80;48.00
44767;DHT22;30487;48.716;9.272;2022-07-15T13:45:43;31.70;48.50
44767;DHT22;30487;48.716;9.272;2022-07-15T13:48:09;31.50;48.30
44767;DHT22;30487;48.716;9.272;2022-07-15T13:50:34;31.70;49.40
44767;DHT22;30487;48.716;9.272;2022-07-15T13:53:18;31.60;49.20
44767;DHT22;30487;48.716;9.272;2022-07-15T13:55:44;31.30;48.70
44767;DHT22;30487;48.716;9.272;2022-07-15T13:58:09;31.00;50.00
44767;DHT22;30487;48.716;9.272;2022-07-15T14:00:36;30.70;50.10
44767;DHT22;30487;48.716;9.272;2022-07-15T14:03:04;30.40;50.20
44767;DHT22;30487;48.716;9.272;2022-07-15T14:05:30;29.90;49.40
44767;DHT22;30487;48.716;9.272;2022-07-15T14:07:55;29.70;49.70
44767;DHT22;30487;48.716;9.272;2022-07-15T14:10:21;29.30;50.30
44767;DHT22;30487;48.716;9.272;2022-07-15T14:12:47;29.00;50.20
44767;DHT22;30487;48.716;9.272;2022-07-15T14:15:12;28.70;50.50
44767;DHT22;30487;48.716;9.272;2022-07-15T14:17:38;28.60;51.30
44767;DHT22;30487;48.716;9.272;2022-07-15T14:20:04;28.60;51.80
44767;DHT22;30487;48.716;9.272;2022-07-15T14:22:29;28.70;51.50
44767;DHT22;30487;48.716;9.272;2022-07-15T14:24:57;28.60;51.60
44767;DHT22;30487;48.716;9.272;2022-07-15T14:27:22;28.70;51.50
44767;DHT22;30487;48.716;9.272;2022-07-15T14:29:48;28.80;51.20
44767;DHT22;30487;48.716;9.272;2022-07-15T14:32:13;28.90;50.60
44767;DHT22;30487;48.716;9.272;2022-07-15T14:34:39;28.90;50.90
44767;DHT22;30487;48.716;9.272;2022-07-15T14:37:04;28.90;50.70
44767;DHT22;30487;48.716;9.272;2022-07-15T14:39:30;28.90;50.70
44767;DHT22;30487;48.716;9.272;2022-07-15T14:41:55;28.90;51.30
44767;DHT22;30487;48.716;9.272;2022-07-15T14:44:21;29.00;50.80
44767;DHT22;30487;48.716;9.272;2022-07-15T14:46:46;29.10;51.20
44767;DHT22;30487;48.716;9.272;2022-07-15T14:49:12;29.20;52.20
44767;DHT22;30487;48.716;9.272;2022-07-15T14:51:37;29.20;53.10
44767;DHT22;30487;48.716;9.272;2022-07-15T14:54:03;29.40;51.40
44767;DHT22;30487;48.716;9.272;2022-07-15T14:56:28;29.50;51.70
44767;DHT22;30487;48.716;9.272;2022-07-15T14:58:54;29.50;52.30
44767;DHT22;30487;48.716;9.272;2022-07-15T15:01:19;29.40;52.40
44767;DHT22;30487;48.716;9.272;2022-07-15T15:03:45;29.50;52.50
44767;DHT22;30487;48.716;9.272;2022-07-15T15:06:10;29.50;52.00
44767;DHT22;30487;48.716;9.272;2022-07-15T15:08:36;29.30;51.00
44767;DHT22;30487;48.716;9.272;2022-07-15T15:11:01;29.20;51.70
44767;DHT22;30487;48.716;9.272;2022-07-15T15:13:27;29.20;50.80
44767;DHT22;30487;48.716;9.272;2022-07-15T15:15:52;29.20;51.20
44767;DHT22;30487;48.716;9.272;2022-07-15T15:18:18;29.30;51.80
44767;DHT22;30487;48.716;9.272;2022-07-15T15:20:43;29.30;51.20
44767;DHT22;30487;48.716;9.272;2022-07-15T15:23:09;29.50;51.00
44767;DHT22;30487;48.716;9.272;2022-07-15T15:25:34;29.50;51.20
44767;DHT22;30487;48.716;9.272;2022-07-15T15:28:18;29.50;50.60
44767;DHT22;30487;48.716;9.272;2022-07-15T15:30:44;29.60;52.10
44767;DHT22;30487;48.716;9.272;2022-07-15T15:33:09;29.60;51.20
44767;DHT22;30487;48.716;9.272;2022-07-15T15:35:35;29.60;52.10
44767;DHT22;30487;48.716;9.272;2022-07-15T15:38:00;29.60;51.90
44767;DHT22;30487;48.716;9.272;2022-07-15T15:40:26;29.60;51.00
44767;DHT22;30487;48.716;9.272;2022-07-15T15:42:51;29.70;50.90
44767;DHT22;30487;48.716;9.272;2022-07-15T15:45:17;29.50;50.20
44767;DHT22;30487;48.716;9.272;2022-07-15T15:47:42;29.40;50.40
44767;DHT22;30487;48.716;9.272;2022-07-15T15:50:08;29.90;49.90
44767;DHT22;30487;48.716;9.272;2022-07-15T15:52:33;30.50;50.80
44767;DHT22;30487;48.716;9.272;2022-07-15T15:54:59;30.80;50.50
44767;DHT22;30487;48.716;9.272;2022-07-15T15:57:24;31.10;49.80
44767;DHT22;30487;48.716;9.272;2022-07-15T15:59:50;31.30;49.50
44767;DHT22;30487;48.716;9.272;2022-07-15T16:02:15;31.30;47.90
44767;DHT22;30487;48.716;9.272;2022-07-15T16:04:41;31.10;47.60
44767;DHT22;30487;48.716;9.272;2022-07-15T16:07:07;30.80;48.30
44767;DHT22;30487;48.716;9.272;2022-07-15T16:09:33;30.90;49.60
44767;DHT22;30487;48.716;9.272;2022-07-15T16:11:58;31.40;49.30